Time;durP1;ratioP1;P1;durP2;ratioP2;P2;SDS_P1;SDS_P2;PMS_P1;PMS_P2;Temp;Humidity;BMP_temperature;BMP_pressure;BME280_temperature;BME280_humidity;BME280_pressure;Samples;Min_cycle;Max_cycle;Signal;HPM_P1;HPM_P2
2024/04/26 00:01:47;;;;;;;197.75;57.58;;;;;;;;;;5342468;26;20341;-67
2024/04/26 00:04:16;;;;;;;196.73;56.47;;;;;;;;;;5342270;26;20340;-67
2024/04/26 00:06:44;;;;;;;196.73;56.47;;;;;;;;;;5343047;26;20384;-67
2024/04/26 00:09:13;;;;;;;197.45;57.08;;;;;;;;;;5340750;26;20365;-67
2024/04/26 00:11:42;;;;;;;198.05;57.17;;;;;;;;;;5342501;26;20336;-67
2024/04/26 00:14:11;;;;;;;197.32;56.28;;;;;;;;;;5356024;26;20369;-67
2024/04/26 00:16:41;;;;;;;198.52;59.17;;;;;;;;;;5342158;26;20337;-67
2024/04/26 00:19:12;;;;;;;198.68;58.03;;;;;;;;;;5341554;26;20340;-67
2024/04/26 00:21:45;;;;;;;198.90;58.63;;;;;;;;;;5342755;26;20431;-67
2024/04/26 00:24:17;;;;;;;199.18;59.85;;;;;;;;;;5338475;26;20853;-67
2024/04/26 00:26:48;;;;;;;199.45;59.80;;;;;;;;;;5342299;26;20333;-67
2024/04/26 00:29:16;;;;;;;199.57;59.53;;;;;;;;;;5334533;26;20393;-67
2024/04/26 00:31:45;;;;;;;199.65;59.92;;;;;;;;;;5342194;26;20856;-67
2024/04/26 00:34:17;;;;;;;198.57;58.63;;;;;;;;;;5335132;26;20373;-67
2024/04/26 00:36:45;;;;;;;199.33;59.00;;;;;;;;;;5342768;26;20376;-67
2024/04/26 00:39:14;;;;;;;197.35;57.00;;;;;;;;;;5337080;26;20371;-67
2024/04/26 00:41:40;;;;;;;197.95;57.85;;;;;;;;;;5342204;26;20352;-67
2024/04/26 00:44:11;;;;;;;197.50;57.72;;;;;;;;;;5341962;26;20345;-67
2024/04/26 00:46:40;;;;;;;198.50;58.08;;;;;;;;;;5341956;26;20369;-67
2024/04/26 00:49:08;;;;;;;197.45;56.70;;;;;;;;;;5342806;26;20691;-67
2024/04/26 00:51:40;;;;;;;197.98;57.47;;;;;;;;;;5341784;26;20372;-67
2024/04/26 00:54:09;;;;;;;198.85;59.22;;;;;;;;;;5354419;26;20388;-67
2024/04/26 00:56:38;;;;;;;196.93;57.40;;;;;;;;;;5347684;26;20368;-67
2024/04/26 00:59:08;;;;;;;199.77;60.72;;;;;;;;;;5341966;26;20372;-67
2024/04/26 01:01:37;;;;;;;198.23;59.92;;;;;;;;;;5339526;26;20360;-67
2024/04/26 01:04:05;;;;;;;199.20;61.55;;;;;;;;;;5340980;26;20340;-67
2024/04/26 01:06:34;;;;;;;198.68;59.58;;;;;;;;;;5341649;26;20336;-67
2024/04/26 01:09:06;;;;;;;198.98;60.03;;;;;;;;;;5341080;26;20363;-67
2024/04/26 01:11:34;;;;;;;198.23;59.83;;;;;;;;;;5341443;26;20890;-67
2024/04/26 01:14:03;;;;;;;197.15;58.10;;;;;;;;;;5347672;26;20344;-67
2024/04/26 01:16:32;;;;;;;198.68;59.25;;;;;;;;;;5341149;26;20854;-68
2024/04/26 01:19:01;;;;;;;196.67;57.40;;;;;;;;;;5348526;26;20527;-67
2024/04/26 01:21:29;;;;;;;197.88;59.35;;;;;;;;;;5342303;26;20341;-68
2024/04/26 01:23:58;;;;;;;197.32;58.85;;;;;;;;;;5340590;26;20385;-67
2024/04/26 01:26:29;;;;;;;198.48;60.60;;;;;;;;;;5334567;26;20381;-68
2024/04/26 01:28:58;;;;;;;198.07;59.80;;;;;;;;;;5342694;26;20345;-67
2024/04/26 01:31:27;;;;;;;198.73;60.60;;;;;;;;;;5344601;26;20345;-67
2024/04/26 01:33:55;;;;;;;197.97;60.10;;;;;;;;;;5350909;26;20910;-68
2024/04/26 01:36:24;;;;;;;199.68;62.50;;;;;;;;;;5344606;26;20370;-68
2024/04/26 01:38:53;;;;;;;197.02;59.10;;;;;;;;;;5344852;26;20359;-67
2024/04/26 01:41:21;;;;;;;198.35;60.67;;;;;;;;;;5347504;26;20372;-67
2024/04/26 01:43:53;;;;;;;198.18;61.03;;;;;;;;;;5347150;26;20349;-68
2024/04/26 01:46:21;;;;;;;198.07;60.88;;;;;;;;;;5343555;26;20348;-68
2024/04/26 01:48:50;;;;;;;199.07;62.13;;;;;;;;;;5344299;26;20854;-68
2024/04/26 01:51:18;;;;;;;197.90;61.10;;;;;;;;;;5344277;26;20357;-67
2024/04/26 01:53:47;;;;;;;197.90;59.65;;;;;;;;;;5337177;26;20373;-67
2024/04/26 01:56:13;;;;;;;199.18;61.25;;;;;;;;;;5347501;26;20684;-68
2024/04/26 01:58:42;;;;;;;198.10;59.47;;;;;;;;;;5346083;26;20357;-67
2024/04/26 02:01:10;;;;;;;198.13;58.70;;;;;;;;;;5344325;26;20345;-68
2024/04/26 02:03:39;;;;;;;198.82;59.70;;;;;;;;;;5343837;26;20353;-68
2024/04/26 02:06:05;;;;;;;197.50;58.20;;;;;;;;;;5345704;26;20334;-68
2024/04/26 02:08:34;;;;;;;197.68;59.33;;;;;;;;;;5349563;26;20441;-68
2024/04/26 02:11:00;;;;;;;195.88;57.03;;;;;;;;;;5347032;26;20349;-67
2024/04/26 02:13:29;;;;;;;199.02;60.85;;;;;;;;;;5347941;26;20718;-68
2024/04/26 02:15:55;;;;;;;199.15;60.15;;;;;;;;;;5350345;26;20850;-68
2024/04/26 02:18:26;;;;;;;197.15;57.92;;;;;;;;;;5346944;26;20350;-68
2024/04/26 02:20:52;;;;;;;197.52;57.83;;;;;;;;;;5344194;26;20345;-68
2024/04/26 02:23:21;;;;;;;199.32;60.50;;;;;;;;;;5343633;26;20344;-68
2024/04/26 02:25:49;;;;;;;198.13;59.88;;;;;;;;;;5344171;26;20414;-68
2024/04/26 02:28:18;;;;;;;197.45;58.40;;;;;;;;;;5343403;26;20342;-68
2024/04/26 02:30:47;;;;;;;198.52;58.38;;;;;;;;;;5350463;26;20341;-67
2024/04/26 02:33:15;;;;;;;197.05;56.28;;;;;;;;;;5343904;26;20388;-67
2024/04/26 02:35:46;;;;;;;196.10;55.45;;;;;;;;;;5348105;26;20369;-68
2024/04/26 02:38:15;;;;;;;195.30;55.35;;;;;;;;;;5346225;26;20435;-68
2024/04/26 02:40:44;;;;;;;197.73;58.10;;;;;;;;;;5343586;26;20345;-68
2024/04/26 02:43:12;;;;;;;199.07;58.67;;;;;;;;;;5346613;26;20419;-68
2024/04/26 02:45:41;;;;;;;197.07;56.80;;;;;;;;;;5343805;26;20384;-68
2024/04/26 02:48:10;;;;;;;197.10;56.97;;;;;;;;;;5346017;26;20385;-68
2024/04/26 02:50:39;;;;;;;198.23;57.63;;;;;;;;;;5346255;26;20349;-67
2024/04/26 02:53:10;;;;;;;198.30;57.47;;;;;;;;;;5349822;26;20341;-68
2024/04/26 02:55:39;;;;;;;196.10;55.30;;;;;;;;;;5349157;26;20352;-68
2024/04/26 02:58:07;;;;;;;198.00;57.28;;;;;;;;;;5344169;26;20348;-68
2024/04/26 03:00:36;;;;;;;197.60;55.80;;;;;;;;;;5342563;26;20348;-68
2024/04/26 03:03:04;;;;;;;197.77;56.55;;;;;;;;;;5339865;26;20348;-68
2024/04/26 03:05:33;;;;;;;198.10;57.75;;;;;;;;;;5343329;26;20348;-66
2024/04/26 03:08:02;;;;;;;197.43;57.22;;;;;;;;;;5349726;26;20352;-66
2024/04/26 03:10:33;;;;;;;199.25;59.90;;;;;;;;;;5350632;26;20366;-66
2024/04/26 03:13:02;;;;;;;199.93;60.70;;;;;;;;;;5343245;26;20353;-66
2024/04/26 03:15:30;;;;;;;196.23;56.70;;;;;;;;;;5343683;26;20341;-67
2024/04/26 03:17:59;;;;;;;197.95;58.08;;;;;;;;;;5348222;26;20348;-67
2024/04/26 03:20:28;;;;;;;198.00;57.97;;;;;;;;;;5347213;26;21020;-67
2024/04/26 03:22:57;;;;;;;197.13;56.63;;;;;;;;;;5343253;26;20344;-67
2024/04/26 03:25:26;;;;;;;196.55;55.65;;;;;;;;;;5348724;26;20345;-67
2024/04/26 03:27:57;;;;;;;196.55;56.15;;;;;;;;;;5342960;26;20333;-67
2024/04/26 03:30:26;;;;;;;195.98;54.88;;;;;;;;;;5351103;26;20330;-67
2024/04/26 03:32:55;;;;;;;197.63;56.72;;;;;;;;;;5342783;26;20384;-66
2024/04/26 03:35:23;;;;;;;197.07;56.37;;;;;;;;;;5342819;26;20341;-67
2024/04/26 03:37:52;;;;;;;196.95;55.83;;;;;;;;;;5342876;26;20854;-66
2024/04/26 03:40:21;;;;;;;196.25;55.03;;;;;;;;;;5343976;26;20348;-67
2024/04/26 03:42:49;;;;;;;198.25;57.00;;;;;;;;;;5343079;26;20850;-67
2024/04/26 03:45:21;;;;;;;197.77;57.53;;;;;;;;;;5342719;26;20381;-68
2024/04/26 03:47:49;;;;;;;195.55;54.25;;;;;;;;;;5342987;26;20344;-67
2024/04/26 03:50:18;;;;;;;197.02;55.83;;;;;;;;;;5343688;26;20843;-68
2024/04/26 03:52:47;;;;;;;196.57;56.20;;;;;;;;;;5342035;26;20744;-68
2024/04/26 03:55:15;;;;;;;198.13;57.83;;;;;;;;;;5348645;26;20551;-68
2024/04/26 03:57:44;;;;;;;196.65;57.28;;;;;;;;;;5336666;26;20352;-68
2024/04/26 04:00:13;;;;;;;196.68;57.00;;;;;;;;;;5346788;26;20344;-68
2024/04/26 04:02:44;;;;;;;197.10;57.17;;;;;;;;;;5342720;26;20718;-67
2024/04/26 04:05:13;;;;;;;196.98;57.20;;;;;;;;;;5344661;26;20371;-67
2024/04/26 04:07:42;;;;;;;198.05;58.72;;;;;;;;;;5342551;26;20465;-68
2024/04/26 04:10:10;;;;;;;197.80;58.65;;;;;;;;;;5346817;26;20882;-68
2024/04/26 04:12:39;;;;;;;197.90;58.30;;;;;;;;;;5344740;26;20372;-68
2024/04/26 04:15:08;;;;;;;196.98;56.88;;;;;;;;;;5341980;26;21161;-68
2024/04/26 04:17:37;;;;;;;197.52;57.53;;;;;;;;;;5342709;26;20838;-68
2024/04/26 04:20:09;;;;;;;198.23;57.95;;;;;;;;;;5342339;26;20376;-68
2024/04/26 04:22:38;;;;;;;197.55;57.55;;;;;;;;;;5339379;26;20345;-68
2024/04/26 04:25:07;;;;;;;196.73;56.15;;;;;;;;;;5342814;26;20382;-68
2024/04/26 04:27:35;;;;;;;196.50;55.78;;;;;;;;;;5342242;26;20340;-67
2024/04/26 04:30:04;;;;;;;196.23;56.38;;;;;;;;;;5342573;26;21125;-67
2024/04/26 04:32:32;;;;;;;197.52;56.35;;;;;;;;;;5342042;26;20381;-67
2024/04/26 04:35:01;;;;;;;197.30;56.10;;;;;;;;;;5341691;26;20884;-68
2024/04/26 04:37:32;;;;;;;196.10;55.47;;;;;;;;;;5347481;26;20364;-68
2024/04/26 04:40:01;;;;;;;198.75;58.65;;;;;;;;;;5346090;26;20420;-67
2024/04/26 04:42:30;;;;;;;197.50;58.35;;;;;;;;;;5343155;26;20381;-68
2024/04/26 04:44:58;;;;;;;196.68;57.45;;;;;;;;;;5341762;26;20678;-68
2024/04/26 04:47:27;;;;;;;197.90;57.55;;;;;;;;;;5335051;26;20341;-65
2024/04/26 04:49:56;;;;;;;195.85;55.78;;;;;;;;;;5336633;26;20724;-65
2024/04/26 04:52:24;;;;;;;198.15;58.72;;;;;;;;;;5343325;26;20363;-69
2024/04/26 04:54:56;;;;;;;198.80;59.00;;;;;;;;;;5339938;26;20431;-69
2024/04/26 04:57:24;;;;;;;197.93;57.83;;;;;;;;;;5342063;26;20340;-66
2024/04/26 04:59:53;;;;;;;195.77;56.17;;;;;;;;;;5344992;26;20690;-66
2024/04/26 05:02:21;;;;;;;196.90;57.05;;;;;;;;;;5339572;26;20337;-66
2024/04/26 05:04:50;;;;;;;197.20;58.03;;;;;;;;;;5348982;26;20337;-65
2024/04/26 05:07:19;;;;;;;224.95;86.22;;;;;;;;;;5335244;26;20404;-64
2024/04/26 05:09:48;;;;;;;197.30;56.80;;;;;;;;;;5348836;26;20474;-65
2024/04/26 05:12:19;;;;;;;199.75;63.90;;;;;;;;;;5350447;26;20329;-64
2024/04/26 05:14:48;;;;;;;197.02;59.58;;;;;;;;;;5336822;26;20384;-63
2024/04/26 05:17:16;;;;;;;197.82;60.30;;;;;;;;;;5349849;26;20349;-62
2024/04/26 05:19:45;;;;;;;198.40;59.97;;;;;;;;;;5343626;26;20372;-63
2024/04/26 05:22:14;;;;;;;198.02;59.65;;;;;;;;;;5343495;26;20341;-61
2024/04/26 05:24:42;;;;;;;198.02;59.42;;;;;;;;;;5343301;26;20369;-63
2024/04/26 05:27:15;;;;;;;204.30;66.22;;;;;;;;;;5341091;26;20341;-64
2024/04/26 05:29:47;;;;;;;199.80;61.58;;;;;;;;;;5351914;26;21259;-65
2024/04/26 05:32:15;;;;;;;197.88;59.35;;;;;;;;;;5343164;26;20340;-64
2024/04/26 05:34:46;;;;;;;199.50;61.65;;;;;;;;;;5342559;26;20441;-62
2024/04/26 05:37:15;;;;;;;199.05;60.78;;;;;;;;;;5345157;26;20375;-63
2024/04/26 05:39:43;;;;;;;197.40;59.88;;;;;;;;;;5345977;26;20854;-61
2024/04/26 05:42:12;;;;;;;198.43;60.92;;;;;;;;;;5347666;26;20366;-62
2024/04/26 05:44:41;;;;;;;197.18;59.15;;;;;;;;;;5344267;26;20717;-64
2024/04/26 05:47:12;;;;;;;199.48;61.45;;;;;;;;;;5343240;26;21079;-65
2024/04/26 05:49:41;;;;;;;199.25;60.13;;;;;;;;;;5349180;26;20346;-64
2024/04/26 05:52:10;;;;;;;200.95;63.30;;;;;;;;;;5341807;26;20340;-63
2024/04/26 05:54:38;;;;;;;199.15;61.88;;;;;;;;;;5344353;26;20334;-66
2024/04/26 05:57:07;;;;;;;198.90;61.50;;;;;;;;;;5344280;26;20870;-67
2024/04/26 05:59:35;;;;;;;196.85;58.85;;;;;;;;;;5343578;26;20333;-65
2024/04/26 06:02:04;;;;;;;198.00;61.40;;;;;;;;;;5341955;26;20340;-65
2024/04/26 06:04:37;;;;;;;199.38;62.90;;;;;;;;;;5336054;26;20440;-64
2024/04/26 06:07:06;;;;;;;199.73;63.33;;;;;;;;;;5339697;26;20383;-63
2024/04/26 06:09:35;;;;;;;199.55;62.47;;;;;;;;;;5353483;26;20338;-64
2024/04/26 06:12:04;;;;;;;201.27;64.95;;;;;;;;;;5342501;26;20329;-65
2024/04/26 06:14:33;;;;;;;198.02;59.35;;;;;;;;;;5340880;26;20913;-65
2024/04/26 06:17:01;;;;;;;198.25;59.45;;;;;;;;;;5342019;26;20353;-65
2024/04/26 06:19:31;;;;;;;199.32;61.92;;;;;;;;;;5343532;26;20388;-66
2024/04/26 06:22:02;;;;;;;198.53;60.73;;;;;;;;;;5342126;26;20341;-65
2024/04/26 06:24:31;;;;;;;198.23;60.88;;;;;;;;;;5344856;26;20336;-64
2024/04/26 06:27:00;;;;;;;197.75;58.80;;;;;;;;;;5336469;26;20344;-64
2024/04/26 06:29:29;;;;;;;199.70;62.28;;;;;;;;;;5353946;26;20446;-63
2024/04/26 06:32:03;;;;;;;197.98;59.67;;;;;;;;;;5342868;26;20399;-64
2024/04/26 06:34:31;;;;;;;198.50;60.70;;;;;;;;;;5337686;26;20349;-64
2024/04/26 06:37:07;;;;;;;199.00;60.45;;;;;;;;;;5342601;26;20341;-65
2024/04/26 06:39:35;;;;;;;199.20;60.87;;;;;;;;;;5341007;26;20449;-63
2024/04/26 06:42:04;;;;;;;198.60;60.17;;;;;;;;;;5342533;26;20352;-65
2024/04/26 06:44:33;;;;;;;199.77;61.50;;;;;;;;;;5343456;26;20462;-65
2024/04/26 06:47:01;;;;;;;197.20;59.88;;;;;;;;;;5336481;26;20348;-65
2024/04/26 06:49:30;;;;;;;198.35;60.58;;;;;;;;;;5341336;26;20448;-65
2024/04/26 06:51:59;;;;;;;199.02;60.60;;;;;;;;;;5345827;26;20333;-65
2024/04/26 06:54:31;;;;;;;198.35;60.92;;;;;;;;;;5343066;26;20402;-64
2024/04/26 06:57:00;;;;;;;197.25;60.70;;;;;;;;;;5345522;26;20338;-65
2024/04/26 06:59:29;;;;;;;200.17;63.37;;;;;;;;;;5341812;26;20341;-66
2024/04/26 07:02:00;;;;;;;197.98;61.63;;;;;;;;;;5341529;26;20344;-65
2024/04/26 07:04:28;;;;;;;197.73;61.53;;;;;;;;;;5341699;26;20341;-64
2024/04/26 07:06:57;;;;;;;198.13;62.33;;;;;;;;;;5341805;26;20349;-65
2024/04/26 07:09:26;;;;;;;198.25;61.60;;;;;;;;;;5344693;26;20337;-64
2024/04/26 07:11:57;;;;;;;199.50;66.97;;;;;;;;;;5335608;26;20348;-64
2024/04/26 07:14:26;;;;;;;200.27;68.63;;;;;;;;;;5345133;26;20344;-66
2024/04/26 07:16:54;;;;;;;201.20;71.10;;;;;;;;;;5341878;26;20701;-65
2024/04/26 07:19:24;;;;;;;198.95;67.18;;;;;;;;;;5340546;26;20419;-64
2024/04/26 07:21:57;;;;;;;199.90;66.43;;;;;;;;;;5341590;26;20477;-67
2024/04/26 07:24:26;;;;;;;200.65;70.80;;;;;;;;;;5346921;26;20348;-63
2024/04/26 07:26:57;;;;;;;200.18;68.20;;;;;;;;;;5340306;26;20349;-67
2024/04/26 07:29:26;;;;;;;200.23;66.50;;;;;;;;;;5347493;26;20341;-66
2024/04/26 07:31:56;;;;;;;203.60;72.15;;;;;;;;;;5355545;26;20845;-66
2024/04/26 07:34:26;;;;;;;200.90;69.63;;;;;;;;;;5345023;26;20447;-66
2024/04/26 07:36:54;;;;;;;198.88;66.18;;;;;;;;;;5346240;26;20345;-64
2024/04/26 07:39:24;;;;;;;198.43;65.03;;;;;;;;;;5350466;26;20332;-63
2024/04/26 07:41:52;;;;;;;198.93;66.05;;;;;;;;;;5341107;26;20345;-62
2024/04/26 07:44:24;;;;;;;200.65;67.15;;;;;;;;;;5350283;26;20338;-65
2024/04/26 07:46:52;;;;;;;199.32;64.93;;;;;;;;;;5343147;26;20448;-65
2024/04/26 07:49:21;;;;;;;198.60;65.25;;;;;;;;;;5352052;26;20326;-65
2024/04/26 07:51:50;;;;;;;200.40;67.82;;;;;;;;;;5348236;26;20348;-65
2024/04/26 07:54:19;;;;;;;199.93;65.68;;;;;;;;;;5344798;26;20349;-65
2024/04/26 07:56:47;;;;;;;199.80;64.65;;;;;;;;;;5347298;26;20345;-64
2024/04/26 07:59:30;;;;;;;199.55;65.80;;;;;;;;;;5343037;26;21220;-67
2024/04/26 08:02:01;;;;;;;199.75;66.47;;;;;;;;;;5340809;26;20834;-63
2024/04/26 08:04:30;;;;;;;199.13;66.40;;;;;;;;;;5343443;26;20766;-64
2024/04/26 08:07:03;;;;;;;199.25;67.75;;;;;;;;;;5340650;26;20376;-63
2024/04/26 08:09:32;;;;;;;199.75;69.57;;;;;;;;;;5341059;26;20368;-65
2024/04/26 08:12:00;;;;;;;200.73;68.47;;;;;;;;;;5340812;26;20980;-65
2024/04/26 08:14:29;;;;;;;200.32;67.35;;;;;;;;;;5345063;26;20335;-64
2024/04/26 08:16:58;;;;;;;198.02;64.05;;;;;;;;;;5341366;26;20345;-63
2024/04/26 08:19:29;;;;;;;198.10;64.65;;;;;;;;;;5339239;26;20878;-64
2024/04/26 08:21:58;;;;;;;200.55;67.10;;;;;;;;;;5340792;26;20345;-64
2024/04/26 08:24:26;;;;;;;198.13;66.05;;;;;;;;;;5341350;26;20345;-64
2024/04/26 08:26:55;;;;;;;199.73;68.15;;;;;;;;;;5340809;26;20421;-63
2024/04/26 08:29:24;;;;;;;202.50;73.27;;;;;;;;;;5353280;26;20341;-65
2024/04/26 08:31:53;;;;;;;200.38;68.97;;;;;;;;;;5343119;26;20439;-68
2024/04/26 08:34:24;;;;;;;201.07;69.80;;;;;;;;;;5343801;26;20732;-65
2024/04/26 08:36:55;;;;;;;199.70;68.73;;;;;;;;;;5341739;26;20709;-67
2024/04/26 08:39:25;;;;;;;201.98;72.55;;;;;;;;;;5342909;26;20337;-65
2024/04/26 08:41:55;;;;;;;202.25;72.68;;;;;;;;;;5343818;26;20344;-64
2024/04/26 08:44:25;;;;;;;199.20;64.88;;;;;;;;;;5344590;26;20676;-64
2024/04/26 08:46:55;;;;;;;197.10;63.47;;;;;;;;;;5344791;26;20345;-65
2024/04/26 08:49:25;;;;;;;187.80;49.93;;;;;;;;;;5358992;26;20240;-65
2024/04/26 08:51:58;;;;;;;185.73;47.23;;;;;;;;;;5338758;26;20513;-65
2024/04/26 08:54:26;;;;;;;185.40;47.43;;;;;;;;;;5355488;26;20482;-65
2024/04/26 08:56:59;;;;;;;198.48;61.42;;;;;;;;;;5345356;26;20726;-65
2024/04/26 08:59:29;;;;;;;198.80;65.25;;;;;;;;;;5349472;26;20382;-64
2024/04/26 09:01:58;;;;;;;198.95;67.93;;;;;;;;;;5354092;26;20346;-65
2024/04/26 09:04:27;;;;;;;198.82;67.90;;;;;;;;;;5358927;26;20348;-65
2024/04/26 09:06:58;;;;;;;198.30;66.55;;;;;;;;;;5345473;26;20348;-65
2024/04/26 09:09:27;;;;;;;199.40;68.43;;;;;;;;;;5342520;26;20365;-66
2024/04/26 09:12:01;;;;;;;200.02;69.43;;;;;;;;;;5338678;26;20341;-65
2024/04/26 09:14:29;;;;;;;200.20;68.13;;;;;;;;;;5339007;26;20344;-67
2024/04/26 09:17:00;;;;;;;200.57;67.13;;;;;;;;;;5348095;26;20378;-66
2024/04/26 09:19:29;;;;;;;199.73;66.85;;;;;;;;;;5338738;26;20368;-65
2024/04/26 09:22:01;;;;;;;199.60;67.87;;;;;;;;;;5342868;26;20392;-63
2024/04/26 09:24:30;;;;;;;201.98;73.25;;;;;;;;;;5343946;26;20394;-63
2024/04/26 09:26:58;;;;;;;203.48;75.63;;;;;;;;;;5349323;26;20345;-63
2024/04/26 09:29:27;;;;;;;204.23;75.80;;;;;;;;;;5341865;26;20436;-66
2024/04/26 09:32:01;;;;;;;203.82;72.80;;;;;;;;;;5348899;26;20344;-62
2024/04/26 09:34:32;;;;;;;201.57;69.30;;;;;;;;;;5337828;26;20336;-64
2024/04/26 09:37:03;;;;;;;202.85;71.22;;;;;;;;;;5342851;26;20846;-67
2024/04/26 09:39:32;;;;;;;202.57;70.60;;;;;;;;;;5341437;26;21169;-66
2024/04/26 09:42:01;;;;;;;203.02;70.03;;;;;;;;;;5348966;26;20380;-64
2024/04/26 09:44:30;;;;;;;200.82;68.00;;;;;;;;;;5341978;26;20340;-63
2024/04/26 09:47:01;;;;;;;203.55;71.18;;;;;;;;;;5346483;26;20434;-61
2024/04/26 09:49:30;;;;;;;201.43;67.43;;;;;;;;;;5343107;26;20395;-62
2024/04/26 09:51:59;;;;;;;202.93;69.82;;;;;;;;;;5348734;26;20352;-62
2024/04/26 09:54:31;;;;;;;201.18;68.30;;;;;;;;;;5347048;26;20420;-63
2024/04/26 09:57:00;;;;;;;201.15;68.25;;;;;;;;;;5343050;26;20405;-65
2024/04/26 09:59:29;;;;;;;203.18;70.13;;;;;;;;;;5341120;26;20376;-64
2024/04/26 10:01:58;;;;;;;201.98;70.78;;;;;;;;;;5345513;26;20345;-63
2024/04/26 10:04:26;;;;;;;202.93;72.10;;;;;;;;;;5341640;26;20391;-64
2024/04/26 10:06:55;;;;;;;202.52;71.00;;;;;;;;;;5347843;26;20373;-67
2024/04/26 10:09:28;;;;;;;201.68;70.93;;;;;;;;;;5343470;26;20344;-66
2024/04/26 10:11:59;;;;;;;202.85;72.78;;;;;;;;;;5341114;26;20831;-65
2024/04/26 10:14:28;;;;;;;203.13;72.68;;;;;;;;;;5351237;26;20437;-67
2024/04/26 10:17:07;;;;;;;201.23;70.82;;;;;;;;;;5346535;26;20404;-66
2024/04/26 10:19:36;;;;;;;201.50;71.80;;;;;;;;;;5345813;26;20352;-63
2024/04/26 10:22:05;;;;;;;202.73;72.72;;;;;;;;;;5344487;26;20333;-64
2024/04/26 10:24:38;;;;;;;202.93;73.38;;;;;;;;;;5341874;26;20912;-63
2024/04/26 10:27:10;;;;;;;202.32;72.65;;;;;;;;;;5336838;26;20384;-63
2024/04/26 10:29:38;;;;;;;202.38;71.32;;;;;;;;;;5356620;26;20379;-62
2024/04/26 10:32:07;;;;;;;202.77;72.18;;;;;;;;;;5343089;26;20388;-64
2024/04/26 10:34:36;;;;;;;200.60;67.38;;;;;;;;;;5347916;26;20342;-67
2024/04/26 10:37:06;;;;;;;203.38;72.07;;;;;;;;;;5342786;26;20427;-67
2024/04/26 10:39:35;;;;;;;203.10;73.68;;;;;;;;;;5342719;26;20712;-66
2024/04/26 10:42:03;;;;;;;204.05;75.80;;;;;;;;;;5341834;26;20365;-66
2024/04/26 10:44:35;;;;;;;203.68;76.15;;;;;;;;;;5341979;26;20337;-66
2024/04/26 10:47:04;;;;;;;201.68;73.57;;;;;;;;;;5341727;26;20384;-64
2024/04/26 10:49:33;;;;;;;204.00;75.27;;;;;;;;;;5341919;26;20423;-64
2024/04/26 10:52:02;;;;;;;204.57;75.60;;;;;;;;;;5341935;26;20345;-64
2024/04/26 10:54:31;;;;;;;202.75;72.32;;;;;;;;;;5338363;26;20336;-65
2024/04/26 10:57:00;;;;;;;203.43;73.32;;;;;;;;;;5341969;26;20404;-62
2024/04/26 10:59:30;;;;;;;202.50;70.90;;;;;;;;;;5340733;26;20463;-65
2024/04/26 11:02:02;;;;;;;201.68;71.47;;;;;;;;;;5346093;26;20981;-63
2024/04/26 11:04:33;;;;;;;203.25;71.80;;;;;;;;;;5341266;26;20349;-63
2024/04/26 11:07:13;;;;;;;203.95;74.28;;;;;;;;;;5335214;26;20385;-64
2024/04/26 11:09:46;;;;;;;202.98;71.57;;;;;;;;;;5346511;26;20401;-64
2024/04/26 11:12:15;;;;;;;201.70;70.10;;;;;;;;;;5348685;26;20371;-63
2024/04/26 11:14:43;;;;;;;201.85;69.55;;;;;;;;;;5345533;26;20416;-64
2024/04/26 11:17:15;;;;;;;200.93;70.75;;;;;;;;;;5351866;26;20355;-64
2024/04/26 11:19:44;;;;;;;202.20;71.68;;;;;;;;;;5350135;26;20344;-64
2024/04/26 11:22:12;;;;;;;203.18;75.18;;;;;;;;;;5336419;26;20345;-64
2024/04/26 11:24:41;;;;;;;202.15;75.10;;;;;;;;;;5342072;26;20684;-63
2024/04/26 11:27:16;;;;;;;204.63;78.05;;;;;;;;;;5351948;26;20368;-64
2024/04/26 11:29:45;;;;;;;202.57;75.07;;;;;;;;;;5346822;26;20336;-63
2024/04/26 11:32:18;;;;;;;205.85;80.00;;;;;;;;;;5345158;26;20349;-63
2024/04/26 11:34:46;;;;;;;202.10;73.78;;;;;;;;;;5342171;26;20377;-63
2024/04/26 11:37:15;;;;;;;204.63;77.63;;;;;;;;;;5344487;26;20774;-65
2024/04/26 11:39:44;;;;;;;201.02;70.72;;;;;;;;;;5340404;26;20368;-64
2024/04/26 11:42:13;;;;;;;201.75;71.68;;;;;;;;;;5338088;26;20381;-63
2024/04/26 11:44:41;;;;;;;203.57;75.33;;;;;;;;;;5343940;26;20748;-66
2024/04/26 11:47:10;;;;;;;204.77;77.00;;;;;;;;;;5355008;26;20378;-64
2024/04/26 11:49:41;;;;;;;204.27;76.57;;;;;;;;;;5345150;26;20341;-65
2024/04/26 11:52:10;;;;;;;205.90;80.85;;;;;;;;;;5341272;26;20349;-63
2024/04/26 11:54:39;;;;;;;203.63;77.85;;;;;;;;;;5342744;26;20345;-64
2024/04/26 11:57:08;;;;;;;194.70;59.47;;;;;;;;;;5343599;26;20290;-68
2024/04/26 11:59:37;;;;;;;191.43;53.70;;;;;;;;;;5339981;26;20231;-64
2024/04/26 12:02:05;;;;;;;189.83;51.67;;;;;;;;;;5344130;26;20238;-64
2024/04/26 12:04:37;;;;;;;191.87;54.07;;;;;;;;;;5336693;26;20825;-65
2024/04/26 12:07:06;;;;;;;;;;;;;;;;;;5351082;26;20900;-64
2024/04/26 12:09:34;;;;;;;;;;;;;;;;;;5340666;26;19931;-63
2024/04/26 12:12:03;;;;;;;;;;;;;;;;;;5343072;26;20022;-62
2024/04/26 12:14:32;;;;;;;;;;;;;;;;;;5346626;26;19939;-64
2024/04/26 12:17:00;;;;;;;;;;;;;;;;;;5352441;26;19925;-65
2024/04/26 12:19:29;;;;;;;;;;;;;;;;;;5341478;26;20380;-65
2024/04/26 12:21:57;;;;;;;;;;;;;;;;;;5347115;26;20360;-67
2024/04/26 12:24:26;;;;;;;;;;;;;;;;;;5352621;26;19926;-67
2024/04/26 12:26:55;;;;;;;;;;;;;;;;;;5345755;26;19942;-67
2024/04/26 12:29:24;;;;;;;;;;;;;;;;;;5343321;26;19933;-67
2024/04/26 12:31:55;;;;;;;;;;;;;;;;;;5348553;26;19926;-67
2024/04/26 12:34:24;;;;;;;;;;;;;;;;;;5346953;26;19999;-67
2024/04/26 12:36:52;;;;;;;;;;;;;;;;;;5347047;26;20346;-67
2024/04/26 12:39:21;;;;;;;;;;;;;;;;;;5347204;26;19926;-67
2024/04/26 12:41:50;;;;;;;;;;;;;;;;;;5343228;26;19926;-67
2024/04/26 12:44:19;;;;;;;;;;;;;;;;;;5344178;26;20607;-67
2024/04/26 12:46:47;;;;;;;;;;;;;;;;;;5347162;26;19984;-67
2024/04/26 12:49:17;;;;;;;;;;;;;;;;;;5341890;26;19932;-67
2024/04/26 12:51:46;;;;;;;;;;;;;;;;;;5350734;26;19926;-67
2024/04/26 12:54:14;;;;;;;;;;;;;;;;;;5347207;26;19991;-67
2024/04/26 12:56:43;;;;;;;;;;;;;;;;;;5347374;26;20013;-67
2024/04/26 12:59:11;;;;;;;;;;;;;;;;;;5342351;26;19933;-67
2024/04/26 13:01:40;;;;;;;;;;;;;;;;;;5344791;26;19926;-67
2024/04/26 13:04:08;;;;;;;;;;;;;;;;;;5343095;26;20703;-67
2024/04/26 13:06:37;;;;;;;;;;;;;;;;;;5337735;26;19926;-68
2024/04/26 13:09:05;;;;;;;;;;;;;;;;;;5347299;26;19926;-65
2024/04/26 13:11:34;;;;;;;;;;;;;;;;;;5347481;26;19926;-65
2024/04/26 13:14:02;;;;;;;;;;;;;;;;;;5343347;26;19926;-65
2024/04/26 13:16:31;;;;;;;;;;;;;;;;;;5346000;26;19925;-64
2024/04/26 13:19:00;;;;;;;;;;;;;;;;;;5343989;26;19926;-65
2024/04/26 13:21:28;;;;;;;;;;;;;;;;;;5343118;26;20364;-68
2024/04/26 13:23:57;;;;;;;;;;;;;;;;;;5343876;26;19949;-66
2024/04/26 13:26:25;;;;;;;;;;;;;;;;;;5346506;26;19926;-66
2024/04/26 13:28:54;;;;;;;;;;;;;;;;;;5353380;26;19926;-66
2024/04/26 13:31:22;;;;;;;;;;;;;;;;;;5346813;26;19932;-67
2024/04/26 13:33:51;;;;;;;;;;;;;;;;;;5346135;26;19936;-65
2024/04/26 13:36:19;;;;;;;;;;;;;;;;;;5346396;26;19926;-67
2024/04/26 13:38:48;;;;;;;;;;;;;;;;;;5346673;26;20372;-68
2024/04/26 13:41:17;;;;;;;;;;;;;;;;;;5343478;26;19995;-69
2024/04/26 13:43:45;;;;;;;;;;;;;;;;;;5346696;26;19926;-68
2024/04/26 13:46:14;;;;;;;;;;;;;;;;;;5365935;26;20372;-66
2024/04/26 13:48:43;;;;;;;;;;;;;;;;;;5346658;26;19926;-67
2024/04/26 13:51:11;;;;;;;;;;;;;;;;;;5355522;26;20264;-66
2024/04/26 13:53:40;;;;;;;;;;;;;;;;;;5346452;26;19933;-67
2024/04/26 13:56:09;;;;;;;;;;;;;;;;;;5346309;26;19926;-66
2024/04/26 13:58:37;;;;;;;;;;;;;;;;;;5347022;26;19926;-67
2024/04/26 14:01:06;;;;;;;;;;;;;;;;;;5346138;26;19958;-66
2024/04/26 14:03:34;;;;;;;;;;;;;;;;;;5346292;26;20288;-66
2024/04/26 14:06:03;;;;;;;;;;;;;;;;;;5351467;26;19992;-67
2024/04/26 14:08:32;;;;;;;;;;;;;;;;;;5349726;26;19934;-64
2024/04/26 14:11:00;;;;;;;;;;;;;;;;;;5342611;26;19962;-70
2024/04/26 14:13:29;;;;;;;;;;;;;;;;;;5350058;26;20373;-67
2024/04/26 14:15:57;;;;;;;;;;;;;;;;;;5346138;26;20652;-66
2024/04/26 14:18:26;;;;;;;;;;;;;;;;;;5344345;26;19954;-68
2024/04/26 14:20:54;;;;;;;;;;;;;;;;;;5346630;26;19972;-65
2024/04/26 14:23:23;;;;;;;;;;;;;;;;;;5345798;26;20291;-66
2024/04/26 14:25:52;;;;;;;;;;;;;;;;;;5363032;26;19925;-66
2024/04/26 14:28:20;;;;;;;;;;;;;;;;;;5351557;26;19933;-67
2024/04/26 14:30:49;;;;;;;;;;;;;;;;;;5345203;26;19926;-69
2024/04/26 14:33:17;;;;;;;;;;;;;;;;;;5348817;26;19995;-65
2024/04/26 14:35:46;;;;;;;;;;;;;;;;;;5344526;26;19926;-67
2024/04/26 14:38:14;;;;;;;;;;;;;;;;;;5346099;26;20376;-67
2024/04/26 14:40:43;;;;;;;;;;;;;;;;;;5346900;26;19991;-68